Terminal Aerodrome Forecast
Issued by NWS

Home | Current Version | Previous Version | Text Only | Print | Product List | Glossary On
Versions: 1 2 3 4 5 6 7 8 9 10 11 12 13 14 15
000
FTUS45 KTFX 012300 RRA
TAFLWT
TAF
KLWT 012341Z 0200/0224 29017G25KT P6SM VCSH SCT060 BKN120
     FM020300 28013KT P6SM SCT080 BKN150
     FM020700 30011KT P6SM SCT050 BKN080
     FM021900 32011KT P6SM VCSH SCT040 BKN070 PROB30 0221/0224
      -SHRA=

USA.gov is the U.S. government's official web portal to all federal, state and local government web resources and services.